Time;durP1;ratioP1;P1;durP2;ratioP2;P2;SDS_P1;SDS_P2;PMS_P1;PMS_P2;Temp;Humidity;BMP_temperature;BMP_pressure;BME280_temperature;BME280_humidity;BME280_pressure;Samples;Min_cycle;Max_cycle;Signal;HPM_P1;HPM_P2
2023/02/18 00:01:16;;;;;;;42.50;25.10;;;;;;;6.44;92.77;100239.59;5127338;27;19954;-90
2023/02/18 00:03:42;;;;;;;41.15;25.77;;;;;;;6.36;92.98;100237.75;5131601;27;20062;-92
2023/02/18 00:06:17;;;;;;;45.75;26.02;;;;;;;6.32;93.09;100230.66;5130287;27;20129;-91
2023/02/18 00:08:44;;;;;;;44.88;26.65;;;;;;;6.34;92.54;100225.41;5133778;27;20057;-91
2023/02/18 00:11:11;;;;;;;41.80;26.33;;;;;;;6.50;91.23;100231.75;5132026;27;20039;-91
2023/02/18 00:13:37;;;;;;;43.55;26.05;;;;;;;6.40;91.79;100216.66;5129943;27;20043;-92
2023/02/18 00:16:06;;;;;;;47.67;27.92;;;;;;;6.37;91.52;100218.38;5129969;27;20105;-91
2023/02/18 00:18:32;;;;;;;47.22;26.52;;;;;;;6.41;90.04;100205.22;5132273;27;20084;-91
2023/02/18 00:20:58;;;;;;;43.08;25.10;;;;;;;6.53;88.28;100187.78;5131936;27;20122;-91
2023/02/18 00:23:25;;;;;;;46.63;27.02;;;;;;;6.60;87.03;100220.44;5131951;27;20131;-93
2023/02/18 00:25:58;;;;;;;47.83;27.60;;;;;;;6.48;88.04;100220.28;5119585;27;20112;-92
2023/02/18 00:28:24;;;;;;;43.63;27.55;;;;;;;6.51;88.18;100233.56;5117710;27;20067;-91
2023/02/18 00:30:50;;;;;;;45.08;27.83;;;;;;;6.45;88.04;100204.41;5116277;27;20601;-90
2023/02/18 00:33:16;;;;;;;45.53;27.92;;;;;;;6.35;89.20;100199.00;5115751;27;20095;-91
2023/02/18 00:35:42;;;;;;;43.90;25.98;;;;;;;6.24;90.10;100205.00;5114203;27;20131;-92
2023/02/18 00:38:07;;;;;;;47.65;27.60;;;;;;;6.31;90.18;100218.31;5115066;27;20047;-91
2023/02/18 00:40:37;;;;;;;47.05;28.02;;;;;;;6.45;90.29;100226.41;5116908;27;20070;-92
2023/02/18 00:43:03;;;;;;;47.45;27.13;;;;;;;6.41;90.23;100219.31;5112427;27;20484;-92
2023/02/18 00:45:29;;;;;;;48.92;29.25;;;;;;;6.34;90.70;100218.34;5116972;27;20080;-92
2023/02/18 00:47:55;;;;;;;49.38;28.20;;;;;;;6.32;91.32;100198.06;5115608;27;20043;-90
2023/02/18 00:50:21;;;;;;;48.55;27.83;;;;;;;6.36;92.61;100208.69;5112527;27;20036;-91
2023/02/18 00:52:47;;;;;;;50.85;28.67;;;;;;;6.36;93.13;100199.88;5113192;27;20103;-91
2023/02/18 00:55:13;;;;;;;44.05;27.50;;;;;;;6.32;93.04;100198.94;5116418;27;20039;-90
2023/02/18 00:57:40;;;;;;;42.88;25.58;;;;;;;6.37;92.91;100196.34;5116634;27;20084;-91
2023/02/18 01:00:07;;;;;;;48.28;27.60;;;;;;;6.40;92.94;100216.66;5116065;27;20053;-92
2023/02/18 01:02:33;;;;;;;47.80;27.55;;;;;;;6.35;93.77;100212.22;5117121;27;20074;-90
2023/02/18 01:04:59;;;;;;;40.55;23.92;;;;;;;6.25;93.62;100196.22;5111100;27;20054;-92
2023/02/18 01:07:25;;;;;;;43.58;24.77;;;;;;;6.19;94.23;100210.22;5117641;27;20047;-91
2023/02/18 01:09:51;;;;;;;46.72;25.73;;;;;;;6.18;94.44;100213.75;5118056;27;20054;-92
2023/02/18 01:12:17;;;;;;;56.40;28.50;;;;;;;6.28;94.35;100215.63;5115927;27;20062;-91
2023/02/18 01:14:44;;;;;;;59.38;29.00;;;;;;;6.20;95.58;100209.34;5112826;27;20039;-92
2023/02/18 01:17:10;;;;;;;52.60;26.83;;;;;;;6.24;96.06;100215.56;5115080;27;20103;-91
2023/02/18 01:19:36;;;;;;;44.30;26.25;;;;;;;6.19;95.90;100202.28;5117588;27;20133;-91
2023/02/18 01:22:02;;;;;;;57.92;31.17;;;;;;;6.11;96.21;100203.94;5115688;27;20600;-93
2023/02/18 01:24:28;;;;;;;55.05;32.17;;;;;;;6.07;96.01;100192.47;5117769;27;20058;-91
2023/02/18 01:26:53;;;;;;;59.85;31.40;;;;;;;6.07;96.68;100181.91;5116063;27;20092;-91
2023/02/18 01:29:19;;;;;;;46.45;27.05;;;;;;;6.09;96.67;100193.34;5115843;27;20041;-91
2023/02/18 01:31:46;;;;;;;45.22;26.40;;;;;;;6.12;96.76;100187.25;5113879;27;20131;-91
2023/02/18 01:34:12;;;;;;;49.65;28.13;;;;;;;6.22;96.61;100197.03;5115438;27;20118;-91
2023/02/18 01:36:38;;;;;;;44.28;27.35;;;;;;;6.03;97.40;100163.31;5116581;27;20162;-91
2023/02/18 01:39:04;;;;;;;44.33;24.48;;;;;;;6.20;97.55;100196.13;5116716;27;20043;-91
2023/02/18 01:41:30;;;;;;;42.65;25.55;;;;;;;6.15;96.75;100169.66;5116441;27;20500;-92
2023/02/18 01:44:16;;;;;;;41.63;24.55;;;;;;;6.27;96.37;100194.50;5113372;27;20039;-92
2023/02/18 01:46:43;;;;;;;43.90;24.45;;;;;;;6.25;96.19;100189.19;5115039;27;20054;-93
2023/02/18 01:49:13;;;;;;;46.67;25.90;;;;;;;6.21;96.28;100182.06;5113432;27;20092;-91
2023/02/18 01:51:42;;;;;;;35.22;21.63;;;;;;;6.30;95.27;100186.59;5114498;27;20076;-92
2023/02/18 01:54:12;;;;;;;40.72;22.40;;;;;;;6.24;94.18;100190.03;5114916;27;20039;-93
2023/02/18 01:56:42;;;;;;;39.25;22.58;;;;;;;6.22;92.41;100181.19;5113122;27;20035;-91
2023/02/18 01:59:13;;;;;;;41.45;22.35;;;;;;;6.30;90.24;100181.31;5114118;27;20556;-91
2023/02/18 02:01:41;;;;;;;38.70;22.42;;;;;;;6.21;91.62;100150.38;5112239;27;20035;-91
2023/02/18 02:04:07;;;;;;;40.08;22.25;;;;;;;6.27;92.57;100158.38;5111384;27;21292;-91
2023/02/18 02:06:34;;;;;;;44.00;23.63;;;;;;;6.26;91.17;100161.00;5115924;27;20039;-93
2023/02/18 02:09:04;;;;;;;44.72;23.17;;;;;;;6.32;91.28;100175.16;5112879;27;20046;-92
2023/02/18 02:11:44;;;;;;;36.42;20.20;;;;;;;6.29;92.18;100164.56;5113552;27;20054;-93
2023/02/18 02:14:21;;;;;;;33.78;20.00;;;;;;;6.33;92.64;100174.31;5114444;27;20045;-92
2023/02/18 02:16:55;;;;;;;30.75;20.52;;;;;;;6.18;92.94;100155.63;5114669;27;20109;-92
2023/02/18 02:19:53;;;;;;;29.92;19.15;;;;;;;6.16;93.57;100163.53;5112057;27;20120;-90
2023/02/18 02:23:04;;;;;;;31.92;19.77;;;;;;;6.09;93.96;100143.16;5115601;27;20055;-92
2023/02/18 02:26:01;;;;;;;34.28;19.92;;;;;;;6.18;95.26;100166.19;5114889;27;20400;-91
2023/02/18 02:28:59;;;;;;;34.45;20.00;;;;;;;6.12;96.15;100167.00;5116106;27;20047;-91
2023/02/18 02:31:56;;;;;;;33.13;19.92;;;;;;;6.10;96.32;100150.25;5110714;27;20046;-91
2023/02/18 02:34:42;;;;;;;38.22;21.83;;;;;;;6.09;97.21;100159.00;5034192;28;20500;-92
2023/02/18 02:37:14;;;;;;;38.38;23.20;;;;;;;6.01;97.48;100155.41;5033437;28;20068;-92
2023/02/18 02:39:47;;;;;;;38.60;22.42;;;;;;;6.05;97.49;100145.75;5033806;28;20048;-91
2023/02/18 02:42:24;;;;;;;37.53;22.08;;;;;;;6.15;97.19;100145.00;5033926;28;20062;-92
2023/02/18 02:44:55;;;;;;;42.67;23.05;;;;;;;6.14;98.05;100148.53;5067909;28;20442;-92
2023/02/18 02:47:31;;;;;;;40.17;22.92;;;;;;;6.08;98.52;100143.16;5033088;28;20079;-93
2023/02/18 02:50:03;;;;;;;40.05;22.65;;;;;;;6.06;97.36;100136.97;5033839;28;20041;-92
2023/02/18 02:52:31;;;;;;;42.55;23.88;;;;;;;6.04;97.66;100128.16;5034649;28;20454;-93
2023/02/18 02:54:58;;;;;;;40.15;22.55;;;;;;;6.09;97.46;100127.31;5035104;28;20114;-91
2023/02/18 02:57:48;;;;;;;41.92;23.10;;;;;;;6.07;98.35;100129.09;5034494;28;20045;-92
2023/02/18 03:00:17;;;;;;;40.25;23.13;;;;;;;6.02;98.81;100135.16;5049847;28;20529;-92
2023/02/18 03:02:59;;;;;;;41.67;22.80;;;;;;;6.05;99.33;100124.63;5049336;28;20079;-92
2023/02/18 03:05:37;;;;;;;41.63;23.13;;;;;;;6.09;99.16;100132.59;5032913;28;20071;-92
2023/02/18 03:08:24;;;;;;;32.70;20.23;;;;;;;6.08;98.52;100137.88;5034587;28;20051;-92
2023/02/18 03:10:58;;;;;;;35.45;19.60;;;;;;;5.96;98.18;100125.38;5075886;28;20064;-91
2023/02/18 03:13:39;;;;;;;38.40;21.23;;;;;;;6.01;96.94;100136.91;5098345;28;20040;-91
2023/02/18 03:16:14;;;;;;;38.13;21.35;;;;;;;5.89;97.98;100142.00;5089075;28;20043;-90
2023/02/18 03:18:45;;;;;;;37.38;20.75;;;;;;;5.75;98.29;100111.00;5089446;28;20420;-91
2023/02/18 03:21:17;;;;;;;37.22;21.33;;;;;;;6.20;97.58;100137.16;5091719;28;20489;-91
2023/02/18 03:23:51;;;;;;;41.45;23.60;;;;;;;6.11;96.39;100133.50;5091481;28;20833;-90
2023/02/18 03:26:19;;;;;;;38.88;22.20;;;;;;;6.10;98.40;100147.59;5091935;28;20052;-92
2023/02/18 03:28:49;;;;;;;43.42;23.98;;;;;;;6.05;98.44;100135.19;5090197;28;20043;-90
2023/02/18 03:31:21;;;;;;;43.40;24.52;;;;;;;6.14;97.95;100136.22;5089621;28;20568;-92
2023/02/18 03:33:52;;;;;;;45.80;25.50;;;;;;;5.96;98.50;100121.03;5090979;28;20048;-91
2023/02/18 03:36:20;;;;;;;48.10;25.05;;;;;;;6.04;98.86;100120.22;5091760;28;20040;-91
2023/02/18 03:38:53;;;;;;;45.83;26.98;;;;;;;5.97;99.48;100117.50;5091822;28;20044;-90
2023/02/18 03:41:19;;;;;;;50.63;27.10;;;;;;;5.99;100.00;100143.06;5091588;28;20040;-94
2023/02/18 03:43:48;;;;;;;49.78;27.08;;;;;;;6.06;99.02;100129.06;5092124;28;20040;-91
2023/02/18 03:46:14;;;;;;;45.22;26.35;;;;;;;6.12;99.02;100134.41;5090294;28;20044;-91
2023/02/18 03:48:40;;;;;;;48.72;27.00;;;;;;;6.18;99.17;100147.72;5091915;28;20048;-93
2023/02/18 03:51:06;;;;;;;47.22;27.02;;;;;;;5.98;99.12;100118.38;5090159;28;20044;-92
2023/02/18 03:53:33;;;;;;;46.90;26.60;;;;;;;6.01;98.92;100128.09;5091341;28;20118;-92
2023/02/18 03:55:59;;;;;;;47.00;26.63;;;;;;;5.96;99.63;100120.13;5090072;28;20044;-91
2023/02/18 03:58:25;;;;;;;46.88;26.58;;;;;;;6.04;100.00;100130.78;5091467;28;20678;-91
2023/02/18 04:00:51;;;;;;;46.35;26.50;;;;;;;5.97;100.00;100122.78;5093206;28;20071;-91
2023/02/18 04:03:16;;;;;;;44.80;25.58;;;;;;;6.05;100.00;100140.47;5094906;28;20454;-91
2023/02/18 04:05:42;;;;;;;43.53;24.40;;;;;;;6.05;100.00;100137.81;5095298;28;20109;-91
2023/02/18 04:08:08;;;;;;;38.13;22.13;;;;;;;5.99;100.00;100132.50;5095206;28;20044;-92
2023/02/18 04:10:35;;;;;;;38.30;21.77;;;;;;;6.05;100.00;100137.81;5095336;28;20048;-91
2023/02/18 04:13:01;;;;;;;38.55;21.98;;;;;;;6.05;99.99;100133.47;5099973;28;20056;-92
2023/02/18 04:15:27;;;;;;;38.63;22.55;;;;;;;6.05;99.89;100143.09;5113909;28;20042;-92
2023/02/18 04:17:53;;;;;;;40.08;22.75;;;;;;;6.03;99.44;100152.75;5114171;28;20040;-92
2023/02/18 04:20:19;;;;;;;37.63;22.50;;;;;;;5.95;99.43;100135.06;5115496;28;20040;-90
2023/02/18 04:22:45;;;;;;;39.65;23.33;;;;;;;5.84;98.95;100136.66;5113728;28;20043;-91
2023/02/18 04:25:10;;;;;;;45.67;24.00;;;;;;;5.73;99.59;100118.03;5114515;28;20051;-92
2023/02/18 04:27:38;;;;;;;39.63;23.70;;;;;;;5.83;99.91;100140.13;5114265;28;20035;-91
2023/02/18 04:30:05;;;;;;;40.67;23.45;;;;;;;5.81;100.00;100141.00;5112888;28;20042;-92
2023/02/18 04:32:31;;;;;;;40.15;24.77;;;;;;;5.80;100.00;100140.13;5113464;28;20036;-91
2023/02/18 04:34:57;;;;;;;49.72;25.58;;;;;;;5.82;100.00;100143.66;5113664;28;20038;-91
2023/02/18 04:37:22;;;;;;;39.25;24.08;;;;;;;5.78;100.00;100133.03;5112824;28;20455;-91
2023/02/18 04:39:48;;;;;;;40.88;23.52;;;;;;;5.66;100.00;100115.25;5114647;27;20508;-92
2023/02/18 04:42:14;;;;;;;38.83;21.92;;;;;;;5.76;100.00;100140.94;5112617;28;20036;-90
2023/02/18 04:44:41;;;;;;;39.72;23.48;;;;;;;5.72;100.00;100125.91;5114268;28;20303;-91
2023/02/18 04:47:08;;;;;;;44.05;24.45;;;;;;;5.71;100.00;100130.31;5112150;28;20069;-90
2023/02/18 04:49:34;;;;;;;43.53;24.92;;;;;;;5.79;100.00;100138.34;5113042;28;20126;-91
2023/02/18 04:51:59;;;;;;;43.53;23.13;;;;;;;5.72;100.00;100133.81;5112206;28;20040;-91
2023/02/18 04:54:25;;;;;;;44.67;24.98;;;;;;;5.63;100.00;100120.50;5111426;28;20088;-91
2023/02/18 04:56:51;;;;;;;39.80;24.30;;;;;;;5.56;100.00;100119.53;5113436;28;20519;-90
2023/02/18 04:59:17;;;;;;;41.00;23.80;;;;;;;5.70;100.00;100138.19;5112177;28;20131;-92
2023/02/18 05:01:44;;;;;;;40.70;23.80;;;;;;;5.71;100.00;100129.44;5110502;28;20035;-90
2023/02/18 05:04:10;;;;;;;48.55;25.73;;;;;;;5.71;100.00;100132.06;5112936;28;20040;-91
2023/02/18 05:06:38;;;;;;;42.60;24.42;;;;;;;5.71;100.00;100130.31;5112973;28;20061;-91
2023/02/18 05:09:04;;;;;;;40.35;22.98;;;;;;;5.83;100.00;100133.97;5112056;28;20469;-92
2023/02/18 05:11:30;;;;;;;38.60;22.67;;;;;;;5.73;100.00;100117.16;5111082;28;20067;-92
2023/02/18 05:13:55;;;;;;;47.92;23.00;;;;;;;5.66;100.00;100121.44;5099420;28;20135;-92
2023/02/18 05:16:21;;;;;;;39.60;22.95;;;;;;;5.66;100.00;100120.53;5092896;28;20123;-91
2023/02/18 05:18:48;;;;;;;39.05;21.92;;;;;;;5.64;100.00;100119.63;5094422;28;20062;-92
2023/02/18 05:21:14;;;;;;;41.05;22.27;;;;;;;5.59;100.00;100121.31;5094541;28;20062;-92
2023/02/18 05:23:40;;;;;;;40.40;23.77;;;;;;;5.54;100.00;100113.34;5093808;28;20142;-91
2023/02/18 05:26:06;;;;;;;44.25;24.70;;;;;;;5.71;100.00;100122.38;5094263;28;20039;-91
2023/02/18 05:28:32;;;;;;;47.50;25.90;;;;;;;5.70;100.00;100130.28;5093084;28;20101;-91
2023/02/18 05:30:58;;;;;;;44.45;25.83;;;;;;;5.75;100.00;100131.25;5093030;28;20498;-91
2023/02/18 05:33:24;;;;;;;46.78;24.45;;;;;;;5.71;100.00;100126.78;5093823;28;20089;-92
2023/02/18 05:35:51;;;;;;;44.45;24.15;;;;;;;5.69;100.00;100131.16;5094080;28;20032;-92
2023/02/18 05:38:17;;;;;;;45.05;24.27;;;;;;;5.69;100.00;100125.88;5093816;28;20040;-93
2023/02/18 05:40:43;;;;;;;43.78;24.30;;;;;;;5.61;99.05;100112.56;5094312;28;20046;-91
2023/02/18 05:43:09;;;;;;;48.17;24.85;;;;;;;5.63;99.22;100131.06;5093705;28;20549;-92
2023/02/18 05:45:35;;;;;;;46.85;26.20;;;;;;;5.57;99.33;100131.84;5093205;28;20117;-92
2023/02/18 05:48:01;;;;;;;43.92;24.92;;;;;;;5.67;98.83;100138.16;5093523;28;20036;-91
2023/02/18 05:50:27;;;;;;;40.00;24.00;;;;;;;5.73;98.55;100125.94;5093482;28;20044;-92
2023/02/18 05:52:54;;;;;;;46.40;24.92;;;;;;;5.75;97.46;100139.16;5093469;28;20397;-91
2023/02/18 05:55:20;;;;;;;47.30;25.23;;;;;;;5.52;94.93;100123.88;5093501;28;20044;-92
2023/02/18 05:57:46;;;;;;;39.47;24.30;;;;;;;5.68;93.93;100119.72;5090752;28;20032;-93
2023/02/18 06:00:13;;;;;;;42.83;24.02;;;;;;;5.81;94.36;100123.38;5091109;28;20047;-91
2023/02/18 06:02:39;;;;;;;42.88;23.40;;;;;;;5.78;94.33;100130.41;5093433;28;20044;-91
2023/02/18 06:05:06;;;;;;;42.10;23.38;;;;;;;5.77;94.20;100148.00;5093057;28;20388;-92
2023/02/18 06:07:32;;;;;;;43.00;24.45;;;;;;;5.59;92.99;100121.31;5092975;28;20052;-93
2023/02/18 06:09:59;;;;;;;46.03;24.55;;;;;;;5.69;92.83;100136.44;5093750;28;20043;-92
2023/02/18 06:12:25;;;;;;;42.08;24.55;;;;;;;5.72;93.02;100144.38;5095606;27;20375;-93
2023/02/18 06:14:51;;;;;;;45.03;25.75;;;;;;;5.70;92.42;100127.63;5115498;27;20304;-93
2023/02/18 06:17:17;;;;;;;46.13;26.50;;;;;;;5.82;92.26;100146.31;5114882;27;20046;-94
2023/02/18 06:19:43;;;;;;;52.25;28.15;;;;;;;5.92;91.65;100150.84;5117393;27;20116;-95
2023/02/18 06:22:10;;;;;;;49.53;27.45;;;;;;;5.71;92.07;100129.44;5116712;28;20438;-93
2023/02/18 06:24:36;;;;;;;46.10;26.73;;;;;;;5.90;92.40;100162.25;5116019;27;20035;-92
2023/02/18 06:27:03;;;;;;;46.08;27.25;;;;;;;5.92;92.52;100158.78;5116492;27;20076;-93
2023/02/18 06:29:30;;;;;;;49.35;27.38;;;;;;;5.81;92.90;100139.22;5115869;27;20357;-94
2023/02/18 06:31:56;;;;;;;49.90;27.33;;;;;;;5.84;92.89;100136.66;5116684;27;20043;-94
2023/02/18 06:34:22;;;;;;;50.15;27.80;;;;;;;5.93;93.36;100144.69;5116816;27;20045;-94
2023/02/18 06:36:48;;;;;;;57.25;31.30;;;;;;;5.95;93.78;100150.03;5109176;27;20035;-94
2023/02/18 06:39:14;;;;;;;54.78;29.58;;;;;;;5.83;94.09;100133.97;5116713;27;20031;-92
2023/02/18 06:41:39;;;;;;;53.40;29.48;;;;;;;5.93;94.42;100146.44;5116502;27;20065;-96
2023/02/18 06:44:07;;;;;;;54.13;28.80;;;;;;;5.94;93.43;100149.16;5117446;27;20052;-92
2023/02/18 06:46:33;;;;;;;51.03;28.85;;;;;;;5.90;94.07;100142.03;5107710;27;20054;-92
2023/02/18 06:48:59;;;;;;;51.65;28.38;;;;;;;5.92;94.05;100139.38;5115159;27;20126;-93
2023/02/18 06:51:25;;;;;;;49.85;28.92;;;;;;;6.06;94.39;100158.97;5115934;27;20058;-94
2023/02/18 06:53:51;;;;;;;51.70;29.02;;;;;;;6.13;94.49;100157.31;5112965;27;20047;-93
2023/02/18 06:56:17;;;;;;;52.70;29.80;;;;;;;6.15;94.02;100156.47;5111492;27;20035;-94
2023/02/18 06:58:43;;;;;;;52.75;28.30;;;;;;;6.20;94.29;100155.63;5116652;27;20077;-95
2023/02/18 07:01:10;;;;;;;50.75;29.10;;;;;;;6.26;94.54;100156.59;5117123;27;20039;-94
2023/02/18 07:03:36;;;;;;;51.63;28.42;;;;;;;6.35;94.64;100167.31;5117000;27;20071;-94
2023/02/18 07:06:02;;;;;;;50.08;27.88;;;;;;;6.39;93.02;100149.72;5116605;28;20066;-96
2023/02/18 07:08:29;;;;;;;49.65;27.48;;;;;;;6.30;93.08;100141.69;5116724;27;20162;-95
2023/02/18 07:10:55;;;;;;;51.38;28.67;;;;;;;6.42;93.28;100165.63;5117988;28;20035;-93
2023/02/18 07:13:21;;;;;;;47.17;27.10;;;;;;;6.37;93.40;100159.38;5116759;28;20133;-93
2023/02/18 07:15:47;;;;;;;51.35;28.85;;;;;;;6.42;93.62;100154.13;5115776;28;20519;-95
2023/02/18 07:18:15;;;;;;;55.38;31.17;;;;;;;6.38;93.63;100151.47;5118732;28;20488;-94
2023/02/18 07:20:40;;;;;;;160.25;50.42;;;;;;;6.44;92.12;100145.38;5117856;28;20035;-94
2023/02/18 07:23:06;;;;;;;118.55;45.75;;;;;;;6.52;90.48;100154.25;5117027;28;20093;-94
2023/02/18 07:25:32;;;;;;;64.18;32.90;;;;;;;6.50;90.23;100150.72;5116202;28;20084;-95
2023/02/18 07:27:58;;;;;;;110.70;48.97;;;;;;;6.61;90.11;100153.47;5114030;28;20039;-94
2023/02/18 07:30:24;;;;;;;195.70;78.80;;;;;;;6.57;89.99;100139.38;5116646;28;20031;-95
2023/02/18 07:32:50;;;;;;;119.93;48.63;;;;;;;6.68;90.27;100154.44;5117958;28;20043;-95
2023/02/18 07:35:18;;;;;;;71.60;33.28;;;;;;;6.62;89.88;100139.41;5118910;27;20126;-93
2023/02/18 07:37:44;;;;;;;102.13;42.88;;;;;;;6.69;89.16;100151.81;5116945;27;20070;-93
2023/02/18 07:40:12;;;;;;;106.53;44.17;;;;;;;6.65;88.91;100147.38;5118793;27;20032;-94
2023/02/18 07:42:38;;;;;;;49.47;27.05;;;;;;;6.60;89.63;100174.63;5118778;27;20039;-93
2023/02/18 07:45:05;;;;;;;48.05;27.15;;;;;;;6.66;89.94;100180.88;5120665;27;20107;-92
2023/02/18 07:47:31;;;;;;;274.38;98.40;;;;;;;6.68;89.56;100173.84;5116961;27;20043;-94
2023/02/18 07:49:56;;;;;;;753.10;247.20;;;;;;;6.84;87.79;100156.38;5118204;27;20043;-94
2023/02/18 07:52:24;;;;;;;94.35;35.72;;;;;;;6.79;87.38;100158.09;5115466;27;20373;-95
2023/02/18 07:54:50;;;;;;;70.75;30.35;;;;;;;6.85;87.22;100170.47;5120843;27;20039;-94
2023/02/18 07:57:16;;;;;;;57.25;27.98;;;;;;;6.88;88.41;100183.75;5115870;27;20457;-92
2023/02/18 07:59:41;;;;;;;52.78;26.67;;;;;;;6.81;88.13;100153.72;5118505;27;20066;-93
2023/02/18 08:02:14;;;;;;;65.53;30.48;;;;;;;6.99;87.96;100171.53;5120554;27;20061;-94
2023/02/18 08:04:39;;;;;;;35.83;20.50;;;;;;;7.08;86.06;100176.91;5120833;27;20047;-94
2023/02/18 08:07:05;;;;;;;38.30;21.58;;;;;;;7.10;85.61;100172.50;5118885;27;20050;-94
2023/02/18 08:09:35;;;;;;;36.08;21.27;;;;;;;7.19;84.42;100171.72;5120035;27;20043;-92
2023/02/18 08:12:01;;;;;;;48.20;23.58;;;;;;;7.16;84.42;100158.47;5120366;27;20039;-94
2023/02/18 08:14:26;;;;;;;119.38;40.75;;;;;;;7.36;84.10;100183.31;5122014;27;20096;-95
2023/02/18 08:16:53;;;;;;;204.75;58.30;;;;;;;7.38;83.88;100180.69;5124308;27;20381;-94
2023/02/18 08:19:19;;;;;;;56.95;25.08;;;;;;;7.30;83.88;100162.09;5120070;27;20039;-94
2023/02/18 08:21:45;;;;;;;39.38;21.83;;;;;;;7.42;84.13;100171.91;5120181;27;20572;-94
2023/02/18 08:24:13;;;;;;;39.55;22.38;;;;;;;7.48;84.28;100176.34;5122571;27;20047;-93
2023/02/18 08:26:40;;;;;;;38.17;21.02;;;;;;;7.45;84.40;100166.63;5121939;27;20035;-95
2023/02/18 08:29:06;;;;;;;40.28;21.20;;;;;;;7.50;84.02;100175.47;5116229;27;20035;-93
2023/02/18 08:31:33;;;;;;;30.85;19.30;;;;;;;7.54;83.41;100177.28;5119476;27;20047;-95
2023/02/18 08:33:59;;;;;;;38.28;19.60;;;;;;;7.51;83.46;100161.41;5121454;27;20039;-94
2023/02/18 08:36:25;;;;;;;34.53;19.45;;;;;;;7.57;82.56;100181.75;5118208;28;20039;-94
2023/02/18 08:38:51;;;;;;;37.83;21.58;;;;;;;7.51;82.86;100161.41;5121599;27;20100;-94
2023/02/18 08:41:17;;;;;;;48.08;23.38;;;;;;;7.76;83.15;100195.97;5121719;27;20039;-95
2023/02/18 08:43:45;;;;;;;43.92;23.70;;;;;;;7.70;82.76;100180.03;5121395;27;20050;-95
2023/02/18 08:46:12;;;;;;;65.75;30.90;;;;;;;7.70;82.82;100172.09;5120975;27;20039;-96
2023/02/18 08:48:38;;;;;;;73.63;35.28;;;;;;;7.87;82.18;100173.13;5124361;27;20047;-94
2023/02/18 08:51:14;;;;;;;68.25;31.60;;;;;;;7.90;82.38;100172.25;5118783;27;20508;-94
2023/02/18 08:53:48;;;;;;;136.68;54.40;;;;;;;7.84;82.84;100166.91;5116804;27;20035;-93
2023/02/18 08:56:16;;;;;;;67.25;31.08;;;;;;;8.00;81.78;100166.13;5119875;27;20054;-94
2023/02/18 08:58:42;;;;;;;47.22;23.20;;;;;;;8.17;80.61;100198.00;5119498;27;20107;-94
2023/02/18 09:01:11;;;;;;;61.58;29.55;;;;;;;8.10;81.82;100190.91;5118908;27;20039;-91
2023/02/18 09:03:38;;;;;;;79.45;36.28;;;;;;;8.05;83.55;100190.91;5119364;27;20049;-94
2023/02/18 09:06:04;;;;;;;69.63;37.05;;;;;;;7.90;83.22;100159.03;5124185;27;20039;-95
2023/02/18 09:08:30;;;;;;;74.80;37.42;;;;;;;8.12;83.06;100186.50;5121963;27;20496;-91
2023/02/18 09:10:57;;;;;;;56.10;30.65;;;;;;;8.08;82.76;100174.13;5123971;27;20091;-96
2023/02/18 09:13:24;;;;;;;48.55;27.15;;;;;;;8.05;83.20;100164.41;5124469;27;20043;-95
2023/02/18 09:15:57;;;;;;;51.35;29.23;;;;;;;8.26;82.95;100190.09;5124099;27;20039;-94
2023/02/18 09:18:25;;;;;;;54.63;33.15;;;;;;;8.17;82.84;100174.16;5124717;27;20046;-95
2023/02/18 09:20:54;;;;;;;46.92;26.73;;;;;;;8.23;83.23;100183.03;5120960;27;20039;-94
2023/02/18 09:23:20;;;;;;;48.70;25.58;;;;;;;8.26;83.33;100190.09;5121654;27;20035;-94
2023/02/18 09:25:46;;;;;;;59.17;30.23;;;;;;;8.29;83.20;100187.50;5122687;27;20552;-95
2023/02/18 09:28:12;;;;;;;47.90;25.30;;;;;;;8.12;83.14;100163.53;5119491;27;20070;-95
2023/02/18 09:30:38;;;;;;;40.13;22.33;;;;;;;8.23;82.82;100185.69;5121276;27;20076;-95
2023/02/18 09:33:05;;;;;;;39.63;21.95;;;;;;;8.21;83.18;100183.91;5120921;27;20495;-92
2023/02/18 09:35:32;;;;;;;37.17;21.60;;;;;;;8.33;83.22;100199.88;5121771;27;20043;-94
2023/02/18 09:37:58;;;;;;;38.70;21.48;;;;;;;8.33;82.99;100189.28;5122486;27;20581;-94
2023/02/18 09:40:28;;;;;;;39.65;22.25;;;;;;;8.27;82.35;100169.81;5123108;27;20031;-92
2023/02/18 09:42:56;;;;;;;41.22;22.17;;;;;;;8.23;82.92;100164.47;5120942;27;20043;-90
2023/02/18 09:45:22;;;;;;;36.60;21.75;;;;;;;8.31;82.61;100169.84;5120309;27;20403;-89
2023/02/18 09:47:49;;;;;;;35.70;21.65;;;;;;;8.42;82.49;100170.78;5116770;27;20740;-92
2023/02/18 09:50:19;;;;;;;39.25;22.48;;;;;;;8.44;82.31;100157.56;5118989;27;20553;-93
2023/02/18 09:52:47;;;;;;;38.33;22.17;;;;;;;8.58;81.54;100181.44;5120677;27;20079;-92
2023/02/18 09:55:18;;;;;;;39.88;22.08;;;;;;;8.46;81.37;100161.09;5119275;27;20576;-93
2023/02/18 09:57:47;;;;;;;46.15;24.88;;;;;;;8.61;81.57;100184.13;5120855;27;20035;-94
2023/02/18 10:00:18;;;;;;;46.13;25.67;;;;;;;8.62;81.08;100185.88;5119744;27;20035;-93
2023/02/18 10:02:53;;;;;;;43.35;24.13;;;;;;;8.60;80.73;100174.38;5120018;27;20042;-94
2023/02/18 10:05:20;;;;;;;41.25;23.58;;;;;;;8.50;81.11;100165.53;5115635;27;20480;-96
2023/02/18 10:07:48;;;;;;;47.47;25.17;;;;;;;8.51;80.45;100166.41;5114173;27;20055;-94
2023/02/18 10:10:20;;;;;;;45.30;24.67;;;;;;;8.64;80.51;100194.75;5120911;27;20039;-93
2023/02/18 10:12:45;;;;;;;43.97;25.23;;;;;;;8.52;80.24;100178.78;5120044;27;20043;-93
2023/02/18 10:15:26;;;;;;;54.70;30.10;;;;;;;8.64;80.49;100197.38;5119582;27;20039;-94
2023/02/18 10:17:54;;;;;;;51.28;27.52;;;;;;;8.48;80.76;100169.03;5117593;27;20126;-94
2023/02/18 10:20:23;;;;;;;45.42;25.08;;;;;;;8.50;81.14;100167.28;5121133;27;20042;-94
2023/02/18 10:22:53;;;;;;;45.92;26.17;;;;;;;8.71;80.63;100203.59;5136296;27;20438;-95
2023/02/18 10:25:22;;;;;;;47.13;27.67;;;;;;;8.74;81.04;100196.56;5114558;28;20065;-93
2023/02/18 10:27:50;;;;;;;46.80;27.48;;;;;;;8.65;80.79;100162.03;5119798;27;20035;-94
2023/02/18 10:30:22;;;;;;;52.03;29.10;;;;;;;8.93;80.47;100194.81;5121931;27;20122;-94
2023/02/18 10:32:54;;;;;;;92.45;53.13;;;;;;;8.91;79.71;100185.97;5119981;27;20070;-94
2023/02/18 10:35:23;;;;;;;65.55;42.22;;;;;;;8.89;79.54;100162.97;5120954;27;20046;-95
2023/02/18 10:38:02;;;;;;;56.05;34.10;;;;;;;9.16;79.90;100194.00;5121620;27;20043;-92
2023/02/18 10:40:34;;;;;;;51.35;29.65;;;;;;;9.32;79.33;100193.09;5119678;27;20072;-95
2023/02/18 10:43:11;;;;;;;56.03;29.85;;;;;;;9.36;78.81;100172.75;5111400;27;20073;-94
2023/02/18 10:45:45;;;;;;;57.22;29.27;;;;;;;9.57;78.02;100167.47;5119724;27;20568;-93
2023/02/18 10:48:32;;;;;;;48.38;27.33;;;;;;;9.81;77.15;100169.19;5120330;27;20516;-94
2023/02/18 10:51:02;;;;;;;50.17;28.73;;;;;;;9.85;75.39;100138.22;5111268;27;20042;-94
2023/02/18 10:53:33;;;;;;;58.22;30.42;;;;;;;10.16;74.65;100149.63;5120316;27;20051;-94
2023/02/18 10:55:59;;;;;;;51.67;27.20;;;;;;;10.35;74.28;100158.47;5120969;27;20039;-94
2023/02/18 10:58:30;;;;;;;44.28;25.38;;;;;;;10.39;73.42;100130.97;5112560;27;20031;-93
2023/02/18 11:00:57;;;;;;;46.17;27.02;;;;;;;10.61;72.81;100141.50;5119399;27;20141;-94
2023/02/18 11:03:24;;;;;;;45.92;26.52;;;;;;;10.79;71.64;100140.50;5121228;27;20388;-95
2023/02/18 11:05:53;;;;;;;47.00;26.10;;;;;;;10.93;71.32;100145.72;5120211;28;20492;-94
2023/02/18 11:08:21;;;;;;;46.38;27.15;;;;;;;10.94;70.78;100142.19;5120500;27;20042;-93
2023/02/18 11:10:49;;;;;;;44.55;26.90;;;;;;;10.79;69.78;100113.91;5119974;28;20051;-92
2023/02/18 11:13:22;;;;;;;49.42;27.35;;;;;;;10.84;69.82;100101.44;5120822;28;20059;-94
2023/02/18 11:15:59;;;;;;;44.92;25.08;;;;;;;11.04;70.18;100122.63;5107884;28;20061;-93
2023/02/18 11:18:31;;;;;;;44.55;26.33;;;;;;;11.33;68.98;100134.81;5118768;28;20434;-93
2023/02/18 11:20:59;;;;;;;37.15;24.33;;;;;;;11.40;67.80;100124.06;5113120;28;20059;-93